Time;durP1;ratioP1;P1;durP2;ratioP2;P2;SDS_P1;SDS_P2;PMS_P1;PMS_P2;Temp;Humidity;BMP_temperature;BMP_pressure;BME280_temperature;BME280_humidity;BME280_pressure;Samples;Min_cycle;Max_cycle;Signal;HPM_P1;HPM_P2
2023/06/22 00:01:08;;;;;;;;;4.00;4.00;;;;;28.72;41.09;101643.63;5058680;28;45229;-72
2023/06/22 00:03:33;;;;;;;;;3.33;3.33;;;;;28.72;41.45;101640.94;5076379;28;45440;-72
2023/06/22 00:05:59;;;;;;;;;2.00;2.00;;;;;28.74;41.62;101639.72;5076561;28;45364;-72
2023/06/22 00:08:24;;;;;;;;;2.67;2.67;;;;;28.76;40.79;101641.34;5076440;28;45468;-72
2023/06/22 00:10:49;;;;;;;;;3.00;3.00;;;;;28.73;40.94;101632.69;5076829;28;45341;-71
2023/06/22 00:13:15;;;;;;;;;3.00;3.00;;;;;28.75;41.34;101637.84;5076394;28;46730;-72
2023/06/22 00:15:41;;;;;;;;;3.67;3.00;;;;;28.74;41.38;101644.22;5076294;28;45824;-72
2023/06/22 00:18:08;;;;;;;;;3.00;3.00;;;;;28.73;41.00;101638.03;5076377;28;45344;-72
2023/06/22 00:20:36;;;;;;;;;2.67;2.67;;;;;28.76;41.41;101638.66;5076530;28;45391;-72
2023/06/22 00:23:08;;;;;;;;;1.33;1.33;;;;;28.76;41.12;101642.16;5075841;28;46524;-72
2023/06/22 00:25:34;;;;;;;;;2.33;2.33;;;;;28.77;41.61;101641.16;5076158;28;45391;-72
2023/06/22 00:28:00;;;;;;;;;2.67;2.67;;;;;28.77;41.21;101637.63;5076324;28;45304;-72
2023/06/22 00:30:25;;;;;;;;;3.00;3.00;;;;;28.75;41.40;101637.84;5076324;28;45312;-72
2023/06/22 00:32:50;;;;;;;;;4.00;4.00;;;;;28.76;41.15;101635.97;5076308;28;45403;-72
2023/06/22 00:35:15;;;;;;;;;2.33;2.33;;;;;28.78;40.84;101636.63;5075991;28;45277;-72
2023/06/22 00:37:42;;;;;;;;;3.67;3.33;;;;;28.76;41.05;101633.31;5076305;28;45451;-72
2023/06/22 00:40:11;;;;;;;;;4.33;3.00;;;;;28.78;41.15;101633.94;5076227;28;45458;-72
2023/06/22 00:42:40;;;;;;;;;3.00;3.00;;;;;28.77;40.86;101632.28;5075851;28;46204;-72
2023/06/22 00:45:07;;;;;;;;;2.67;2.67;;;;;28.78;41.24;101639.31;5076025;28;45497;-72
2023/06/22 00:47:35;;;;;;;;;2.00;2.00;;;;;28.77;41.20;101641.16;5076179;28;45551;-72
2023/06/22 00:50:00;;;;;;;;;3.00;3.00;;;;;28.80;41.38;101630.03;5073972;28;45468;-72
2023/06/22 00:52:29;;;;;;;;;2.67;2.67;;;;;28.79;41.13;101623.00;5055499;28;45511;-72
2023/06/22 00:54:56;;;;;;;;;2.00;2.00;;;;;28.81;41.39;101628.97;5055638;28;45423;-72
2023/06/22 00:57:22;;;;;;;;;2.33;2.33;;;;;28.82;41.50;101616.41;5055875;28;45386;-72
2023/06/22 00:59:48;;;;;;;;;3.00;3.00;;;;;28.82;41.40;101616.41;5071202;28;45372;-72
2023/06/22 01:02:14;;;;;;;;;2.67;2.00;;;;;28.81;41.03;101615.59;5078925;28;46357;-73
2023/06/22 01:04:40;;;;;;;;;2.33;2.33;;;;;28.82;41.21;101621.78;5079041;28;45368;-72
2023/06/22 01:07:13;;;;;;;;;2.67;2.67;;;;;28.82;41.19;101609.22;5079665;28;45344;-72
2023/06/22 01:09:49;;;;;;;;;3.00;3.00;;;;;28.82;41.31;101601.19;5079668;28;45396;-72
2023/06/22 01:12:16;;;;;;;;;3.67;3.67;;;;;28.83;41.08;101608.16;5079302;28;45935;-72
2023/06/22 01:14:47;;;;;;;;;2.33;1.67;;;;;28.82;41.18;101611.88;5079204;28;45379;-72
2023/06/22 01:17:16;;;;;;;;;3.33;3.33;;;;;28.84;40.98;101609.00;5079073;28;45402;-72
2023/06/22 01:19:55;;;;;;;;;2.33;2.33;;;;;28.84;40.85;101604.47;5079062;28;45334;-73
2023/06/22 01:22:23;;;;;;;;;2.33;2.33;;;;;28.84;41.45;101606.31;5079231;28;47354;-72
2023/06/22 01:25:15;;;;;;;;;2.00;2.00;;;;;28.85;41.56;101607.97;5079080;28;45380;-72
2023/06/22 01:28:05;;;;;;;;;2.33;2.33;;;;;28.84;41.15;101601.78;5068017;28;45494;-72
2023/06/22 01:30:33;;;;;;;;;1.67;1.67;;;;;28.83;41.23;101604.69;5079103;28;45305;-73
2023/06/22 01:33:02;;;;;;;;;3.67;3.67;;;;;28.84;41.40;101598.28;5078902;28;45422;-72
2023/06/22 01:35:28;;;;;;;;;1.00;1.00;;;;;28.84;41.42;101603.63;5078598;28;45418;-72
2023/06/22 01:37:54;;;;;;;;;2.33;2.33;;;;;28.84;41.43;101593.75;5078873;28;45430;-72
2023/06/22 01:40:21;;;;;;;;;2.33;2.33;;;;;28.83;41.45;101602.00;5078963;28;45514;-73
2023/06/22 01:42:48;;;;;;;;;3.00;3.00;;;;;28.85;41.35;101614.16;5078526;28;46262;-72
2023/06/22 01:45:14;;;;;;;;;2.00;2.00;;;;;28.85;41.38;101613.31;5078761;28;45379;-72
2023/06/22 01:47:40;;;;;;;;;3.67;3.67;;;;;28.84;41.14;101607.16;5078852;28;45355;-72
2023/06/22 01:50:06;;;;;;;;;3.00;3.00;;;;;28.83;41.38;101600.13;5076035;28;45359;-72
2023/06/22 01:52:33;;;;;;;;;3.33;3.33;;;;;28.83;40.98;101596.66;5058369;28;45307;-72
2023/06/22 01:54:59;;;;;;;;;2.00;2.00;;;;;28.85;41.52;101613.31;5058093;28;45364;-73
2023/06/22 01:57:25;;;;;;;;;3.00;3.00;;;;;28.84;41.10;101611.66;5058157;28;45364;-72
2023/06/22 01:59:57;;;;;;;;;2.00;2.00;;;;;28.87;41.58;101610.44;5074267;28;45635;-72
2023/06/22 02:02:26;;;;;;;;;2.00;2.00;;;;;28.88;41.25;101618.28;5078253;28;46250;-72
2023/06/22 02:05:12;;;;;;;;;1.67;1.67;;;;;28.86;40.97;101604.25;5078462;28;45429;-73
2023/06/22 02:07:52;;;;;;;;;3.00;2.00;;;;;28.88;41.10;101614.75;5060446;28;45339;-73
2023/06/22 02:10:21;;;;;;;;;4.67;4.00;;;;;28.87;41.28;101608.59;5078605;28;45511;-72
2023/06/22 02:12:48;;;;;;;;;2.67;2.67;;;;;28.88;41.29;101614.75;5078247;28;45381;-73
2023/06/22 02:15:14;;;;;;;;;2.67;1.00;;;;;28.87;41.64;101605.06;5078156;27;45329;-73
2023/06/22 02:17:43;;;;;;;;;1.67;1.67;;;;;28.88;41.13;101598.69;5077876;28;45459;-73
2023/06/22 02:20:13;;;;;;;;;1.00;1.00;;;;;28.88;40.91;101585.31;5078429;28;45465;-72
2023/06/22 02:22:40;;;;;;;;;3.00;1.33;;;;;28.86;40.97;101585.50;5078055;28;47482;-73
2023/06/22 02:25:05;;;;;;;;;3.00;3.00;;;;;28.86;41.42;101574.78;5078191;28;45419;-72
2023/06/22 02:27:31;;;;;;;;;2.00;2.00;;;;;28.84;41.25;101575.00;5078240;28;45325;-73
2023/06/22 02:29:57;;;;;;;;;3.00;3.00;;;;;28.87;41.21;101575.63;5078286;28;45288;-72
2023/06/22 02:32:22;;;;;;;;;2.00;2.00;;;;;28.88;41.35;101578.09;5077807;28;45381;-72
2023/06/22 02:34:47;;;;;;;;;3.00;3.00;;;;;28.87;41.48;101573.75;5078008;28;45353;-72
2023/06/22 02:37:14;;;;;;;;;2.00;2.00;;;;;28.87;41.41;101572.94;5078122;28;45352;-73
2023/06/22 02:39:40;;;;;;;;;3.33;3.33;;;;;28.90;41.39;101575.19;5078077;28;45392;-72
2023/06/22 02:42:06;;;;;;;;;2.67;2.67;;;;;28.88;41.37;101572.75;5077733;28;46000;-72
2023/06/22 02:44:31;;;;;;;;;2.00;2.00;;;;;28.85;41.09;101555.25;5059779;28;45730;-72
2023/06/22 02:46:58;;;;;;;;;2.67;2.67;;;;;28.89;41.53;101557.47;5077748;28;45218;-71
2023/06/22 02:49:24;;;;;;;;;3.33;2.33;;;;;28.90;41.36;101556.47;5077217;28;45316;-72
2023/06/22 02:51:49;;;;;;;;;4.00;3.00;;;;;28.88;41.21;101556.69;5060181;28;45367;-73
2023/06/22 02:54:16;;;;;;;;;3.67;3.67;;;;;28.87;40.96;101552.34;5057482;28;45366;-72
2023/06/22 02:56:43;;;;;;;;;4.00;4.00;;;;;28.91;41.29;101564.28;5057590;28;45331;-72
2023/06/22 02:59:10;;;;;;;;;2.67;2.67;;;;;28.91;41.08;101568.81;5067673;28;45550;-72
2023/06/22 03:01:39;;;;;;;;;4.00;4.00;;;;;28.88;41.34;101564.72;5077141;28;46296;-72
2023/06/22 03:04:05;;;;;;;;;3.00;3.00;;;;;28.89;41.40;101571.69;5077489;28;45375;-72
2023/06/22 03:06:30;;;;;;;;;2.33;2.33;;;;;28.89;41.44;101579.72;5077594;28;45335;-73
2023/06/22 03:09:00;;;;;;;;;2.67;2.67;;;;;28.89;40.94;101585.09;5077617;28;46236;-72
2023/06/22 03:11:26;;;;;;;;;4.00;3.00;;;;;28.90;41.55;101589.41;5077585;28;45307;-72
2023/06/22 03:13:52;;;;;;;;;3.33;3.33;;;;;28.87;41.70;101572.94;5077312;28;45215;-73
2023/06/22 03:16:18;;;;;;;;;4.00;2.00;;;;;28.89;41.21;101569.03;5077068;28;45564;-72
2023/06/22 03:18:44;;;;;;;;;2.67;2.67;;;;;28.89;41.11;101568.19;5077244;28;45317;-72
2023/06/22 03:21:09;;;;;;;;;2.33;2.33;;;;;28.84;41.37;101561.63;5077324;28;46010;-72
2023/06/22 03:23:34;;;;;;;;;2.33;2.33;;;;;28.87;41.15;101549.66;5076667;28;45368;-72
2023/06/22 03:26:00;;;;;;;;;2.00;2.00;;;;;28.88;41.36;101548.63;5077303;28;45312;-72
2023/06/22 03:28:25;;;;;;;;;1.33;1.33;;;;;28.87;40.89;101546.97;5077365;28;45354;-73
2023/06/22 03:30:50;;;;;;;;;2.00;2.00;;;;;28.88;40.99;101539.78;5076916;28;46037;-72
2023/06/22 03:33:15;;;;;;;;;1.33;1.33;;;;;28.88;40.95;101545.97;5077171;28;45297;-73
2023/06/22 03:35:42;;;;;;;;;2.33;2.00;;;;;28.87;41.62;101535.44;5077439;28;45268;-73
2023/06/22 03:38:07;;;;;;;;;2.67;2.67;;;;;28.88;40.86;101527.22;5077105;28;45334;-72
2023/06/22 03:40:32;;;;;;;;;2.67;2.00;;;;;28.88;41.43;101527.22;5077072;28;46331;-72
2023/06/22 03:42:58;;;;;;;;;3.00;3.00;;;;;28.71;41.53;101498.22;5076890;28;45388;-72
2023/06/22 03:45:23;;;;;;;;;2.00;2.00;;;;;28.88;41.29;101523.72;5076767;28;45297;-72
2023/06/22 03:47:48;;;;;;;;;3.67;3.67;;;;;28.90;41.02;101524.31;5076905;28;45320;-72
2023/06/22 03:50:14;;;;;;;;;2.67;2.67;;;;;28.88;41.15;101523.72;5068544;28;47513;-72
2023/06/22 03:52:40;;;;;;;;;3.00;3.00;;;;;28.89;41.06;101533.38;5036400;28;45424;-72
2023/06/22 03:55:06;;;;;;;;;3.00;3.00;;;;;28.88;41.27;101521.03;5036436;28;45313;-72
2023/06/22 03:57:32;;;;;;;;;2.33;2.33;;;;;28.90;40.99;101532.34;5036400;28;45310;-72
2023/06/22 03:59:58;;;;;;;;;3.67;3.67;;;;;28.85;41.11;101528.47;5069797;28;45414;-72
2023/06/22 04:02:24;;;;;;;;;5.00;2.00;;;;;28.89;41.67;101528.84;5076809;28;45600;-72
2023/06/22 04:04:49;;;;;;;;;2.00;2.00;;;;;28.88;41.17;101529.06;5076823;28;45608;-72
2023/06/22 04:07:14;;;;;;;;;1.00;1.00;;;;;28.90;40.97;101535.03;5076466;28;45325;-72
2023/06/22 04:09:40;;;;;;;;;3.67;3.67;;;;;28.89;40.93;101536.88;5075893;28;45402;-72
2023/06/22 04:12:06;;;;;;;;;2.00;2.00;;;;;28.88;41.42;101537.94;5076605;28;45333;-72
2023/06/22 04:14:31;;;;;;;;;2.67;2.67;;;;;28.90;41.38;101540.38;5076298;28;45312;-72
2023/06/22 04:16:57;;;;;;;;;3.67;3.00;;;;;28.91;41.24;101542.03;5076237;28;45387;-72
2023/06/22 04:19:23;;;;;;;;;2.00;2.00;;;;;28.90;41.40;101546.56;5076297;28;46308;-72
2023/06/22 04:21:48;;;;;;;;;2.00;2.00;;;;;28.90;40.91;101541.22;5076346;28;45316;-73
2023/06/22 04:24:14;;;;;;;;;2.67;1.67;;;;;28.90;41.22;101546.56;5076435;28;45435;-72
2023/06/22 04:26:41;;;;;;;;;3.00;2.00;;;;;28.91;41.17;101539.38;5076520;28;45437;-72
2023/06/22 04:29:08;;;;;;;;;2.33;1.33;;;;;28.89;41.70;101541.41;5075814;28;46362;-72
2023/06/22 04:31:36;;;;;;;;;2.00;2.00;;;;;28.91;41.15;101547.41;5076041;28;45342;-73
2023/06/22 04:34:06;;;;;;;;;2.33;2.33;;;;;28.91;41.52;101548.19;5076228;28;45326;-73
2023/06/22 04:36:37;;;;;;;;;4.33;4.00;;;;;28.91;41.18;101542.03;5074846;28;45277;-73
2023/06/22 04:39:04;;;;;;;;;1.67;1.67;;;;;28.90;41.18;101543.91;5076200;28;45678;-73
2023/06/22 04:41:29;;;;;;;;;2.00;2.00;;;;;28.71;40.66;101521.47;5075989;28;45419;-72
2023/06/22 04:43:59;;;;;;;;;1.67;1.67;;;;;28.89;41.48;101555.63;5075734;28;45422;-72
2023/06/22 04:46:25;;;;;;;;;2.33;2.33;;;;;28.89;41.42;101555.63;5076123;28;45334;-72
2023/06/22 04:48:50;;;;;;;;;2.00;1.33;;;;;28.85;41.48;101552.56;5075970;28;46211;-72
2023/06/22 04:51:15;;;;;;;;;2.00;2.00;;;;;28.87;40.88;101555.03;5063681;28;45327;-72
2023/06/22 04:53:41;;;;;;;;;2.00;2.00;;;;;28.89;41.20;101568.19;5055833;28;45306;-72
2023/06/22 04:56:06;;;;;;;;;4.00;2.67;;;;;28.89;41.18;101565.50;5055737;28;45337;-72
2023/06/22 04:58:32;;;;;;;;;2.00;2.00;;;;;28.87;40.80;101559.53;5060242;28;45368;-72
2023/06/22 05:00:57;;;;;;;;;2.00;2.00;;;;;28.89;41.40;101568.19;5075798;28;45534;-72
2023/06/22 05:03:25;;;;;;;;;2.00;2.00;;;;;28.89;41.41;101557.47;5075965;28;45415;-72
2023/06/22 05:05:52;;;;;;;;;3.33;3.33;;;;;28.90;41.21;101557.28;5075930;28;45407;-72
2023/06/22 05:08:17;;;;;;;;;2.33;2.33;;;;;28.91;41.19;101558.91;5075552;28;46201;-72
2023/06/22 05:10:43;;;;;;;;;2.00;2.00;;;;;28.89;41.19;101552.13;5075246;28;45418;-72
2023/06/22 05:13:08;;;;;;;;;4.00;4.00;;;;;28.88;41.19;101545.97;5057579;28;45386;-72
2023/06/22 05:15:39;;;;;;;;;2.33;2.33;;;;;28.90;41.42;101549.25;5077114;27;45457;-72
2023/06/22 05:18:05;;;;;;;;;2.00;2.00;;;;;28.89;41.32;101552.94;5074193;28;47012;-72
2023/06/22 05:20:30;;;;;;;;;2.33;2.33;;;;;28.89;41.08;101550.28;5075401;27;45362;-72
2023/06/22 05:22:56;;;;;;;;;2.00;1.00;;;;;28.90;41.13;101556.47;5075829;28;45287;-72
2023/06/22 05:25:21;;;;;;;;;1.33;1.33;;;;;28.89;41.22;101546.75;5075319;27;45398;-73
2023/06/22 05:27:47;;;;;;;;;1.33;1.33;;;;;28.90;41.33;101543.91;5074224;28;46874;-72
2023/06/22 05:30:12;;;;;;;;;1.33;1.33;;;;;28.87;41.21;101544.31;5075021;27;45328;-73
2023/06/22 05:32:38;;;;;;;;;3.00;2.67;;;;;28.89;41.08;101546.75;5075369;28;45423;-73
2023/06/22 05:35:04;;;;;;;;;1.00;1.00;;;;;28.89;41.06;101539.56;5075605;28;45413;-73
2023/06/22 05:37:29;;;;;;;;;2.33;2.00;;;;;28.90;40.99;101535.03;5075284;27;45353;-72
2023/06/22 05:39:55;;;;;;;;;3.67;2.67;;;;;28.88;41.55;101537.09;5075023;28;45447;-73
2023/06/22 05:42:21;;;;;;;;;2.00;2.00;;;;;28.90;41.55;101530.50;5075559;28;45286;-72
2023/06/22 05:44:47;;;;;;;;;3.00;2.00;;;;;28.72;40.79;101501.72;5075296;27;45353;-72
2023/06/22 05:47:12;;;;;;;;;2.00;2.00;;;;;28.89;41.20;101520.81;5076650;28;45364;-73
2023/06/22 05:49:38;;;;;;;;;1.33;1.33;;;;;28.89;40.85;101523.50;5078873;28;45328;-73
2023/06/22 05:52:04;;;;;;;;;2.33;2.00;;;;;28.89;41.22;101509.28;5078774;28;45531;-73
2023/06/22 05:54:29;;;;;;;;;3.00;1.67;;;;;28.87;40.77;101517.53;5078496;28;45348;-72
2023/06/22 05:56:55;;;;;;;;;2.67;2.00;;;;;28.85;41.11;101515.06;5078477;27;46135;-72
2023/06/22 05:59:20;;;;;;;;;2.00;2.00;;;;;28.88;40.63;101513.81;5078382;27;45454;-73
2023/06/22 06:01:49;;;;;;;;;1.00;1.00;;;;;28.88;40.82;101521.03;5078810;27;45356;-72
2023/06/22 06:04:16;;;;;;;;;2.67;2.67;;;;;28.88;41.20;101515.69;5078529;27;45338;-72
2023/06/22 06:06:41;;;;;;;;;2.33;1.67;;;;;28.80;41.17;101498.81;5078310;28;47147;-73
2023/06/22 06:09:07;;;;;;;;;4.00;2.00;;;;;28.89;41.01;101514.63;5078166;27;45322;-73
2023/06/22 06:11:33;;;;;;;;;2.00;2.00;;;;;28.89;41.17;101504.75;5078732;27;45673;-73
2023/06/22 06:13:58;;;;;;;;;1.67;1.67;;;;;28.90;41.28;101517.13;5078422;28;45266;-73
2023/06/22 06:16:24;;;;;;;;;3.00;3.00;;;;;28.90;41.19;101505.56;5078104;28;45414;-73
2023/06/22 06:18:50;;;;;;;;;2.67;2.67;;;;;28.87;40.26;101514.84;5078012;28;45444;-78
2023/06/22 06:21:16;;;;;;;;;1.00;1.00;;;;;28.70;37.73;101514.50;5078485;28;45273;-75
2023/06/22 06:23:42;;;;;;;;;2.67;1.67;;;;;28.36;37.63;101510.00;5077796;28;45421;-74
2023/06/22 06:26:07;;;;;;;;;2.00;2.00;;;;;28.01;37.32;101507.53;5053887;28;46027;-73
2023/06/22 06:28:33;;;;;;;;;4.00;4.00;;;;;27.69;37.33;101508.91;5036509;28;45532;-76
2023/06/22 06:30:59;;;;;;;;;6.33;3.33;;;;;27.46;37.22;101519.94;5045224;28;45396;-74
2023/06/22 06:33:24;;;;;;;;;5.00;4.33;;;;;27.22;37.42;101517.59;5055252;28;45422;-74
2023/06/22 06:35:50;;;;;;;;;3.00;3.00;;;;;27.03;37.76;101519.16;5064389;28;45373;-74
2023/06/22 06:38:15;;;;;;;;;3.00;3.00;;;;;26.83;38.29;101518.03;5043925;28;45285;-76
2023/06/22 06:40:40;;;;;;;;;1.33;1.33;;;;;26.67;38.00;101524.53;5056329;28;45462;-74
2023/06/22 06:43:06;;;;;;;;;4.00;2.00;;;;;26.45;38.19;101519.22;5054873;28;45578;-75
2023/06/22 06:45:34;;;;;;;;;4.33;2.00;;;;;26.35;38.46;101524.03;5047473;28;45319;-73
2023/06/22 06:47:59;;;;;;;;;1.67;1.67;;;;;26.22;38.94;101527.44;5037336;28;45541;-74
2023/06/22 06:50:25;;;;;;;;;2.00;1.33;;;;;26.15;39.18;101528.19;5042058;28;45336;-73
2023/06/22 06:52:50;;;;;;;;;1.33;1.33;;;;;26.07;39.32;101523.00;5057429;28;45356;-73
2023/06/22 06:55:16;;;;;;;;;3.00;1.33;;;;;25.96;38.85;101506.50;5057100;28;46904;-72
2023/06/22 06:57:43;;;;;;;;;2.33;2.33;;;;;25.88;39.07;101509.28;5056984;28;45463;-73
2023/06/22 07:00:14;;;;;;;;;3.67;3.33;;;;;25.77;39.56;101518.63;5073573;28;45433;-73
2023/06/22 07:02:42;;;;;;;;;3.00;3.00;;;;;25.68;39.73;101517.06;5077629;28;45289;-73
2023/06/22 07:05:08;;;;;;;;;2.00;2.00;;;;;25.58;39.74;101520.84;5049837;28;46102;-73
2023/06/22 07:07:33;;;;;;;;;3.00;3.00;;;;;25.57;40.02;101519.22;5044017;28;45696;-72
2023/06/22 07:09:59;;;;;;;;;3.00;3.00;;;;;25.57;40.17;101519.22;5052728;28;45364;-73
2023/06/22 07:12:25;;;;;;;;;2.33;2.33;;;;;25.61;40.42;101520.47;5051197;28;45316;-73
2023/06/22 07:14:51;;;;;;;;;3.33;2.00;;;;;25.61;40.30;101524.97;5053052;27;46301;-73
2023/06/22 07:17:17;;;;;;;;;2.33;2.00;;;;;25.62;40.61;101530.13;5073527;27;45599;-73
2023/06/22 07:19:42;;;;;;;;;1.00;1.00;;;;;25.66;41.00;101541.22;5073003;27;45410;-73
2023/06/22 07:22:08;;;;;;;;;2.33;2.00;;;;;25.66;40.53;101535.09;5073214;27;45386;-73
2023/06/22 07:24:33;;;;;;;;;4.00;2.00;;;;;25.68;41.07;101541.88;5072875;27;46096;-73
2023/06/22 07:26:59;;;;;;;;;1.00;1.00;;;;;25.70;41.03;101539.00;5073105;27;45437;-73
2023/06/22 07:29:26;;;;;;;;;2.00;2.00;;;;;25.72;40.86;101539.66;5073245;27;45489;-73
2023/06/22 07:31:51;;;;;;;;;2.00;2.00;;;;;25.71;41.03;101546.81;5073526;27;45587;-73
2023/06/22 07:34:17;;;;;;;;;1.33;1.33;;;;;25.73;40.71;101543.97;5073278;27;46419;-74
2023/06/22 07:36:43;;;;;;;;;2.33;2.00;;;;;25.71;41.10;101543.34;5071933;27;45483;-73
2023/06/22 07:39:09;;;;;;;;;2.33;2.33;;;;;25.71;41.25;101541.47;5073061;28;45794;-73
2023/06/22 07:41:34;;;;;;;;;2.67;2.00;;;;;25.71;40.99;101543.34;5072572;28;46297;-73
2023/06/22 07:43:59;;;;;;;;;2.00;2.00;;;;;25.68;41.50;101531.22;5072546;28;46247;-74
2023/06/22 07:46:25;;;;;;;;;4.33;4.00;;;;;25.73;41.43;101538.66;5072832;28;45383;-73
2023/06/22 07:48:51;;;;;;;;;5.33;3.00;;;;;25.73;41.39;101538.66;5073413;28;45626;-73
2023/06/22 07:51:16;;;;;;;;;4.00;4.00;;;;;25.73;41.23;101536.84;5072771;28;45394;-72
2023/06/22 07:53:43;;;;;;;;;4.00;4.00;;;;;25.77;41.77;101542.59;5072371;28;45447;-73
2023/06/22 07:56:11;;;;;;;;;3.00;2.00;;;;;25.75;41.15;101536.63;5072736;28;45497;-73
2023/06/22 07:58:36;;;;;;;;;3.33;3.00;;;;;25.80;41.05;101547.56;5072381;27;45489;-73
2023/06/22 08:01:03;;;;;;;;;3.00;3.00;;;;;25.81;41.48;101551.88;5072586;28;45466;-74
2023/06/22 08:03:28;;;;;;;;;4.00;3.00;;;;;25.84;40.89;101561.34;5071582;28;45794;-73
2023/06/22 08:05:53;;;;;;;;;4.00;3.00;;;;;25.84;41.33;101567.47;5071720;27;45430;-74
2023/06/22 08:08:19;;;;;;;;;3.67;3.00;;;;;25.87;41.35;101562.81;5073118;27;45942;-73
2023/06/22 08:10:44;;;;;;;;;2.33;2.33;;;;;25.92;41.61;101568.38;5070231;28;46510;-73
2023/06/22 08:13:10;;;;;;;;;3.67;3.67;;;;;25.96;41.64;101575.00;5072151;27;45450;-73
2023/06/22 08:15:35;;;;;;;;;4.33;3.33;;;;;26.00;41.61;101567.44;5071924;28;45383;-73
2023/06/22 08:18:00;;;;;;;;;3.33;2.33;;;;;26.00;41.46;101560.25;5072290;28;45410;-73
2023/06/22 08:20:26;;;;;;;;;4.33;4.33;;;;;25.98;41.61;101566.78;5071534;28;45546;-74
2023/06/22 08:22:53;;;;;;;;;3.00;3.00;;;;;26.02;41.44;101571.56;5072679;28;46028;-74
2023/06/22 08:25:19;;;;;;;;;2.00;2.00;;;;;26.02;41.62;101563.56;5072900;28;45473;-73
2023/06/22 08:27:48;;;;;;;;;2.00;2.00;;;;;26.09;41.56;101568.97;5072111;28;45401;-73
2023/06/22 08:30:14;;;;;;;;;5.00;4.00;;;;;26.10;41.91;101559.13;5072126;28;45974;-72
2023/06/22 08:32:40;;;;;;;;;2.67;2.67;;;;;26.09;41.59;101552.97;5071809;28;45756;-73
2023/06/22 08:35:08;;;;;;;;;2.00;2.00;;;;;26.07;41.58;101547.00;5069731;28;45479;-73
2023/06/22 08:37:35;;;;;;;;;3.67;3.00;;;;;26.12;41.72;101557.09;5072110;27;45247;-72
2023/06/22 08:40:03;;;;;;;;;3.00;3.00;;;;;26.13;41.61;101558.72;5072005;28;45834;-72
2023/06/22 08:42:29;;;;;;;;;3.00;3.00;;;;;26.15;42.21;101554.06;5071664;28;46351;-71
2023/06/22 08:44:55;;;;;;;;;7.00;3.00;;;;;26.29;41.71;101561.16;5072115;28;45445;-72
2023/06/22 08:47:21;;;;;;;;;4.33;2.33;;;;;26.43;41.57;101565.75;5072338;28;45381;-72
2023/06/22 08:49:47;;;;;;;;;5.00;3.00;;;;;26.56;41.59;101573.09;5071598;28;45577;-71
2023/06/22 08:52:12;;;;;;;;;3.00;3.00;;;;;26.66;41.59;101564.72;5070633;27;46066;-71
2023/06/22 08:54:37;;;;;;;;;2.33;2.33;;;;;26.76;41.06;101556.38;5071377;28;45314;-72
2023/06/22 08:57:03;;;;;;;;;3.67;3.33;;;;;26.91;40.87;101562.44;5071944;28;45304;-71
2023/06/22 08:59:28;;;;;;;;;4.00;4.00;;;;;26.98;40.75;101553.63;5071115;27;45470;-72
2023/06/22 09:01:54;;;;;;;;;3.67;3.00;;;;;27.10;41.11;101570.75;5071998;28;47334;-72
2023/06/22 09:04:21;;;;;;;;;2.67;2.67;;;;;27.21;40.31;101571.25;5072088;28;45350;-72
2023/06/22 09:06:47;;;;;;;;;3.00;3.00;;;;;27.27;40.69;101565.13;5071793;28;45399;-72
2023/06/22 09:09:14;;;;;;;;;4.67;4.33;;;;;27.38;40.16;101580.56;5070303;27;46617;-72
2023/06/22 09:11:40;;;;;;;;;4.33;4.33;;;;;27.47;40.06;101578.56;5071320;27;46390;-72
2023/06/22 09:14:06;;;;;;;;;3.67;3.67;;;;;27.55;40.11;101571.38;5071626;27;45514;-72
2023/06/22 09:16:31;;;;;;;;;6.00;4.00;;;;;27.59;40.46;101581.47;5071325;28;45367;-72
2023/06/22 09:18:57;;;;;;;;;4.00;4.00;;;;;27.67;40.31;101582.31;5071211;28;45448;-72
2023/06/22 09:21:23;;;;;;;;;3.00;3.00;;;;;27.72;40.01;101580.69;5071576;28;46080;-72
2023/06/22 09:23:51;;;;;;;;;3.00;3.00;;;;;27.80;39.88;101593.06;5075183;28;45299;-72
2023/06/22 09:26:17;;;;;;;;;4.00;4.00;;;;;27.81;39.91;101589.38;5075631;27;45599;-72
2023/06/22 09:28:42;;;;;;;;;4.00;4.00;;;;;27.86;39.60;101580.75;5074779;27;45612;-72
2023/06/22 09:31:07;;;;;;;;;7.00;4.00;;;;;27.95;39.57;101592.91;5074945;28;46165;-71
2023/06/22 09:33:33;;;;;;;;;5.33;4.67;;;;;28.01;39.90;101593.94;5074468;28;46588;-71
2023/06/22 09:35:58;;;;;;;;;4.00;4.00;;;;;28.06;39.52;101590.66;5075082;28;45366;-72
2023/06/22 09:38:23;;;;;;;;;2.67;2.67;;;;;28.09;39.73;101587.56;5075243;28;45403;-72
2023/06/22 09:40:49;;;;;;;;;3.33;3.33;;;;;28.12;39.93;101597.88;5075005;28;46334;-72
2023/06/22 09:43:14;;;;;;;;;5.00;4.33;;;;;28.18;39.43;101604.25;5074473;28;46905;-72
2023/06/22 09:45:39;;;;;;;;;3.67;3.00;;;;;28.23;39.36;101598.28;5074663;28;45516;-72
2023/06/22 09:48:05;;;;;;;;;3.00;3.00;;;;;28.26;39.37;101600.56;5074453;28;45730;-72
2023/06/22 09:50:30;;;;;;;;;5.67;5.00;;;;;28.28;39.30;101593.97;5073853;28;45490;-72
2023/06/22 09:52:56;;;;;;;;;5.00;5.00;;;;;28.33;39.67;101611.25;5074552;28;45508;-71
2023/06/22 09:55:22;;;;;;;;;5.67;4.67;;;;;28.36;39.51;101613.53;5074323;28;45533;-72
2023/06/22 09:57:47;;;;;;;;;3.67;3.67;;;;;28.37;39.51;101618.66;5074831;28;45545;-72
2023/06/22 10:00:14;;;;;;;;;3.33;3.33;;;;;28.43;39.21;101617.03;5074329;28;46900;-72
2023/06/22 10:02:41;;;;;;;;;3.67;3.67;;;;;28.46;39.69;101618.50;5073838;28;46028;-72
2023/06/22 10:05:07;;;;;;;;;4.00;4.00;;;;;28.43;39.59;101616.19;5074334;28;45488;-72
2023/06/22 10:07:33;;;;;;;;;5.00;5.00;;;;;28.51;39.23;101624.06;5073879;28;46489;-73
2023/06/22 10:09:58;;;;;;;;;3.33;3.33;;;;;28.54;38.94;101626.34;5073418;27;46230;-73
2023/06/22 10:12:23;;;;;;;;;2.50;2.50;;;;;28.59;39.29;101625.72;5074398;28;45524;-71
2023/06/22 10:14:49;;;;;;;;;5.67;5.67;;;;;28.61;39.58;101631.69;5074389;28;45427;-72
2023/06/22 10:17:14;;;;;;;;;5.00;5.00;;;;;28.67;39.72;101627.34;5073725;27;45497;-73
2023/06/22 10:19:41;;;;;;;;;4.00;4.00;;;;;28.68;39.14;101620.94;5073927;28;45353;-72
2023/06/22 10:22:06;;;;;;;;;4.00;4.00;;;;;28.72;39.27;101622.19;5074241;28;45526;-72
2023/06/22 10:24:32;;;;;;;;;5.00;4.00;;;;;28.72;39.27;101617.69;5074166;27;45362;-73
2023/06/22 10:26:57;;;;;;;;;3.67;3.67;;;;;28.73;39.31;101615.78;5074335;28;45528;-72
2023/06/22 10:29:22;;;;;;;;;6.67;5.00;;;;;28.80;39.65;101627.34;5074002;28;45388;-73
2023/06/22 10:31:48;;;;;;;;;4.67;3.00;;;;;28.81;39.28;101614.75;5073847;28;45488;-72
2023/06/22 10:34:13;;;;;;;;;4.33;4.33;;;;;28.84;39.54;101617.84;5072832;27;45395;-72
2023/06/22 10:36:38;;;;;;;;;5.00;4.67;;;;;28.85;39.42;101607.97;5073979;28;45459;-73
2023/06/22 10:39:04;;;;;;;;;5.33;5.33;;;;;28.90;39.61;101608.16;5073886;28;46508;-73
2023/06/22 10:41:30;;;;;;;;;7.00;5.33;;;;;28.92;39.37;101610.63;5074001;28;45378;-72
2023/06/22 10:43:56;;;;;;;;;4.67;4.67;;;;;28.94;39.15;101604.03;5073829;28;45440;-73
2023/06/22 10:46:21;;;;;;;;;4.67;4.67;;;;;28.95;39.64;101599.50;5073928;27;45432;-73
2023/06/22 10:48:47;;;;;;;;;4.67;3.67;;;;;28.99;39.06;101595.34;5073979;28;48082;-73
2023/06/22 10:51:12;;;;;;;;;3.67;3.67;;;;;29.01;39.14;101609.38;5072924;28;45382;-73
2023/06/22 10:53:37;;;;;;;;;5.00;5.00;;;;;29.02;38.88;101611.03;5073728;27;45451;-73
2023/06/22 10:56:03;;;;;;;;;2.67;2.67;;;;;29.05;39.35;101599.06;5073488;27;45894;-73
2023/06/22 10:58:28;;;;;;;;;3.00;3.00;;;;;29.07;39.56;101605.84;5105893;27;47490;-73
2023/06/22 11:00:53;;;;;;;;;4.00;4.00;;;;;29.11;39.11;101594.75;5073515;28;45707;-73
2023/06/22 11:03:19;;;;;;;;;4.67;4.67;;;;;29.13;39.08;101598.03;5074059;28;45559;-73
2023/06/22 11:05:44;;;;;;;;;3.67;3.67;;;;;29.16;38.83;101605.66;5073323;28;46585;-73
2023/06/22 11:08:09;;;;;;;;;3.67;3.67;;;;;29.15;39.06;101606.69;5072937;27;45937;-72
2023/06/22 11:10:35;;;;;;;;;6.00;5.00;;;;;29.19;38.74;101621.31;5068988;27;45733;-72
2023/06/22 11:13:02;;;;;;;;;5.67;4.00;;;;;29.15;38.21;101610.19;5069547;28;45465;-72
2023/06/22 11:15:27;;;;;;;;;4.00;4.00;;;;;29.15;38.40;101620.91;5069149;27;45454;-71
2023/06/22 11:17:53;;;;;;;;;5.00;5.00;;;;;29.14;38.66;101613.91;5072529;28;46022;-73
2023/06/22 11:20:18;;;;;;;;;3.00;3.00;;;;;29.15;38.54;101614.72;5073574;28;45261;-73